createdAt,value
2023-05-10T00:00:10.589Z,2668.00
2023-05-10T00:01:10.649Z,2666.00
2023-05-10T00:02:10.693Z,2665.00
2023-05-10T00:03:10.864Z,2658.00
2023-05-10T00:04:10.860Z,2639.00
2023-05-10T00:05:10.862Z,2649.00
2023-05-10T00:06:10.943Z,2666.00
2023-05-10T00:07:10.988Z,2639.00
2023-05-10T00:08:11.054Z,2646.00
2023-05-10T00:09:11.104Z,2626.00
2023-05-10T00:10:11.161Z,2638.00
2023-05-10T00:11:11.225Z,2634.00
2023-05-10T00:12:11.286Z,2627.00
2023-05-10T00:13:11.385Z,2622.00
2023-05-10T00:14:11.380Z,2631.00
2023-05-10T00:15:11.443Z,2621.00
2023-05-10T00:16:11.525Z,2652.00
2023-05-10T00:17:11.554Z,2635.00
2023-05-10T00:18:11.633Z,2618.00
2023-05-10T00:19:11.683Z,2624.00
2023-05-10T00:20:11.747Z,2599.00
2023-05-10T00:21:11.802Z,2615.00
2023-05-10T00:22:11.867Z,2596.00
2023-05-10T00:23:11.936Z,2603.00
2023-05-10T00:24:12.012Z,2569.00
2023-05-10T00:25:12.033Z,2589.00
2023-05-10T00:26:12.100Z,2587.00
2023-05-10T00:27:12.158Z,2573.00
2023-05-10T00:28:12.238Z,2593.00
2023-05-10T00:29:12.272Z,2606.00
2023-05-10T00:30:12.366Z,2591.00
2023-05-10T00:31:12.396Z,2589.00
2023-05-10T00:32:12.493Z,2586.00
2023-05-10T00:33:12.537Z,2599.00
2023-05-10T00:34:12.577Z,2595.00
2023-05-10T00:35:12.636Z,2582.00
2023-05-10T00:36:12.709Z,2579.00
2023-05-10T00:37:12.755Z,2599.00
2023-05-10T00:38:12.835Z,2586.00
2023-05-10T00:39:12.897Z,2619.00
2023-05-10T00:40:12.941Z,2558.00
2023-05-10T00:41:13.004Z,2565.00
2023-05-10T00:42:13.058Z,2576.00
2023-05-10T00:43:13.140Z,2572.00
2023-05-10T00:44:13.187Z,2541.00
2023-05-10T00:45:13.250Z,2566.00
2023-05-10T00:46:13.361Z,2551.00
2023-05-10T00:47:13.376Z,2553.00
2023-05-10T00:48:13.445Z,2548.00
2023-05-10T00:49:13.482Z,2547.00
2023-05-10T00:50:13.660Z,2524.00
2023-05-10T00:51:13.605Z,2532.00
2023-05-10T00:52:13.661Z,2503.00
2023-05-10T00:53:13.740Z,2521.00
2023-05-10T00:54:13.778Z,2506.00
2023-05-10T00:55:13.823Z,2494.00
2023-05-10T00:56:13.900Z,2496.00
2023-05-10T00:57:13.948Z,2484.00
2023-05-10T00:58:14.007Z,2470.00
2023-05-10T00:59:14.072Z,2470.00
2023-05-10T01:00:14.289Z,2460.00
2023-05-10T01:01:14.235Z,2509.00
2023-05-10T01:02:14.283Z,2504.00
2023-05-10T01:03:14.439Z,2513.00
2023-05-10T01:04:14.375Z,2499.00
2023-05-10T01:05:14.460Z,2505.00
2023-05-10T01:06:14.474Z,2491.00
2023-05-10T01:07:14.555Z,2492.00
2023-05-10T01:08:14.626Z,2499.00
2023-05-10T01:09:14.657Z,2516.00
2023-05-10T01:10:14.858Z,2515.00
2023-05-10T01:11:14.788Z,2498.00
2023-05-10T01:12:14.906Z,2526.00
2023-05-10T01:13:14.907Z,2497.00
2023-05-10T01:14:14.959Z,2514.00
2023-05-10T01:15:15.022Z,2504.00
2023-05-10T01:16:15.102Z,2499.00
2023-05-10T01:17:15.133Z,2488.00
2023-05-10T01:18:15.182Z,2478.00
2023-05-10T01:19:15.241Z,2485.00
2023-05-10T01:20:15.583Z,2509.00
2023-05-10T01:21:15.358Z,2498.00
2023-05-10T01:22:15.428Z,2525.00
2023-05-10T01:23:15.482Z,2521.00
2023-05-10T01:24:15.530Z,2521.00
2023-05-10T01:25:15.605Z,2502.00
2023-05-10T01:26:15.658Z,2502.00
2023-05-10T01:27:15.727Z,2527.00
2023-05-10T01:28:15.762Z,2538.00
2023-05-10T01:29:15.829Z,2527.00
2023-05-10T01:30:16.334Z,2525.00
2023-05-10T01:31:16.024Z,2533.00
2023-05-10T01:32:16.066Z,2513.00
2023-05-10T01:33:16.044Z,2482.00
2023-05-10T01:34:16.089Z,2487.00
2023-05-10T01:35:16.119Z,2476.00
2023-05-10T01:36:16.153Z,2465.00
2023-05-10T01:37:16.217Z,2474.00
2023-05-10T01:38:16.268Z,2441.00
2023-05-10T01:39:16.296Z,2425.00
2023-05-10T01:40:16.618Z,2432.00
2023-05-10T01:41:16.371Z,2410.00
2023-05-10T01:42:16.431Z,2425.00
2023-05-10T01:43:16.466Z,2403.00
2023-05-10T01:44:16.544Z,2377.00
2023-05-10T01:45:16.569Z,2359.00
2023-05-10T01:46:16.640Z,2356.00
2023-05-10T01:47:16.672Z,2348.00
2023-05-10T01:48:16.711Z,2334.00
2023-05-10T01:49:16.759Z,2350.00
2023-05-10T01:50:17.115Z,2344.00
2023-05-10T01:51:16.868Z,2332.00
2023-05-10T01:52:16.923Z,2362.00
2023-05-10T01:53:16.961Z,2342.00
2023-05-10T01:54:17.018Z,2345.00
2023-05-10T01:55:17.082Z,2376.00
2023-05-10T01:56:17.113Z,2338.00
2023-05-10T01:57:17.161Z,2328.00
2023-05-10T01:58:17.173Z,2340.00
2023-05-10T01:59:17.263Z,2341.00
2023-05-10T02:00:17.485Z,2314.00
2023-05-10T02:01:17.365Z,2290.00
2023-05-10T02:02:17.383Z,2337.00
2023-05-10T02:03:17.471Z,2341.00
2023-05-10T02:04:17.446Z,2319.00
2023-05-10T02:05:17.518Z,2343.00
2023-05-10T02:06:17.487Z,2347.00
2023-05-10T02:07:17.497Z,2334.00
2023-05-10T02:08:17.504Z,2314.00
2023-05-10T02:09:17.545Z,2332.00
2023-05-10T02:10:17.787Z,2356.00
2023-05-10T02:11:17.589Z,2340.00
2023-05-10T02:12:17.626Z,2322.00
2023-05-10T02:13:17.684Z,2344.00
2023-05-10T02:14:17.682Z,2366.00
2023-05-10T02:15:17.717Z,2337.00
2023-05-10T02:16:17.769Z,2339.00
2023-05-10T02:17:17.781Z,2345.00
2023-05-10T02:18:17.840Z,2328.00
2023-05-10T02:19:17.867Z,2294.00
2023-05-10T02:20:18.141Z,2310.00
2023-05-10T02:21:17.856Z,2313.00
2023-05-10T02:22:17.860Z,2305.00
2023-05-10T02:23:17.885Z,2265.00
2023-05-10T02:24:17.904Z,2228.00
2023-05-10T02:25:17.902Z,2254.00
2023-05-10T02:26:17.899Z,2229.00
2023-05-10T02:27:17.900Z,2230.00
2023-05-10T02:28:17.891Z,2223.00
2023-05-10T02:29:17.914Z,2215.00
2023-05-10T02:30:18.101Z,2199.00
2023-05-10T02:31:17.933Z,2236.00
2023-05-10T02:32:18.176Z,2211.00
2023-05-10T02:33:17.956Z,2226.00
2023-05-10T02:34:17.952Z,2242.00
2023-05-10T02:35:17.948Z,2220.00
2023-05-10T02:36:17.943Z,2204.00
2023-05-10T02:37:17.949Z,2201.00
2023-05-10T02:38:17.944Z,2210.00
2023-05-10T02:39:17.964Z,2211.00
2023-05-10T02:40:18.246Z,2191.00
2023-05-10T02:41:17.973Z,2198.00
2023-05-10T02:42:18.003Z,2212.00
2023-05-10T02:43:18.016Z,2185.00
2023-05-10T02:44:18.026Z,2181.00
2023-05-10T02:45:18.046Z,2194.00
2023-05-10T02:46:18.112Z,2188.00
2023-05-10T02:47:18.076Z,2161.00
2023-05-10T02:48:18.063Z,2151.00
2023-05-10T02:49:18.093Z,2134.00
2023-05-10T02:50:18.355Z,2166.00
2023-05-10T02:51:18.097Z,2167.00
2023-05-10T02:52:18.115Z,2159.00
2023-05-10T02:53:18.106Z,2162.00
2023-05-10T02:54:18.115Z,2164.00
2023-05-10T02:55:18.123Z,2165.00
2023-05-10T02:56:18.127Z,2161.00
2023-05-10T02:57:18.134Z,2182.00
2023-05-10T02:58:18.128Z,2181.00
2023-05-10T02:59:18.161Z,2157.00
2023-05-10T03:00:18.360Z,2156.00
2023-05-10T03:01:18.219Z,2153.00
2023-05-10T03:02:18.183Z,2144.00
2023-05-10T03:03:18.191Z,2131.00
2023-05-10T03:04:18.195Z,2130.00
2023-05-10T03:05:18.170Z,2147.00
2023-05-10T03:06:18.208Z,2142.00
2023-05-10T03:07:18.204Z,2130.00
2023-05-10T03:08:18.206Z,2113.00
2023-05-10T03:09:18.217Z,2098.00
2023-05-10T03:10:18.364Z,2096.00
2023-05-10T03:11:18.199Z,2111.00
2023-05-10T03:12:18.205Z,2126.00
2023-05-10T03:13:18.269Z,2153.00
2023-05-10T03:14:18.203Z,2101.00
2023-05-10T03:15:18.179Z,2084.00
2023-05-10T03:16:18.199Z,2095.00
2023-05-10T03:17:18.169Z,2099.00
2023-05-10T03:18:18.185Z,2082.00
2023-05-10T03:19:18.188Z,2087.00
2023-05-10T03:20:18.431Z,2067.00
2023-05-10T03:21:18.164Z,2107.00
2023-05-10T03:22:18.173Z,2120.00
2023-05-10T03:23:18.180Z,2113.00
2023-05-10T03:24:18.181Z,2123.00
2023-05-10T03:25:18.195Z,2129.00
2023-05-10T03:26:18.214Z,2118.00
2023-05-10T03:27:18.199Z,2103.00
2023-05-10T03:28:18.208Z,2104.00
2023-05-10T03:29:18.202Z,2097.00
2023-05-10T03:30:18.466Z,2123.00
2023-05-10T03:31:18.208Z,2132.00
2023-05-10T03:32:18.193Z,2114.00
2023-05-10T03:33:18.195Z,2105.00
2023-05-10T03:34:18.169Z,2131.00
2023-05-10T03:35:18.172Z,2163.00
2023-05-10T03:36:18.179Z,2185.00
2023-05-10T03:37:18.188Z,2159.00
2023-05-10T03:38:18.159Z,2131.00
2023-05-10T03:39:18.158Z,2130.00
2023-05-10T03:40:18.647Z,2128.00
2023-05-10T03:41:18.161Z,2146.00
2023-05-10T03:42:18.143Z,2154.00
2023-05-10T03:43:18.146Z,2132.00
2023-05-10T03:44:18.170Z,2137.00
2023-05-10T03:45:18.171Z,2166.00
2023-05-10T03:46:18.158Z,2128.00
2023-05-10T03:47:18.145Z,2113.00
2023-05-10T03:48:18.136Z,2116.00
2023-05-10T03:49:18.138Z,2128.00
2023-05-10T03:50:18.344Z,2121.00
2023-05-10T03:51:18.157Z,2076.00
2023-05-10T03:52:18.130Z,2080.00
2023-05-10T03:53:18.112Z,2082.00
2023-05-10T03:54:18.134Z,2081.00
2023-05-10T03:55:18.124Z,2068.00
2023-05-10T03:56:18.101Z,2030.00
2023-05-10T03:57:18.108Z,2037.00
2023-05-10T03:58:18.093Z,2051.00
2023-05-10T03:59:18.105Z,2040.00
2023-05-10T04:00:18.264Z,2027.00
2023-05-10T04:01:18.104Z,2037.00
2023-05-10T04:02:18.132Z,2068.00
2023-05-10T04:03:18.143Z,2035.00
2023-05-10T04:04:18.180Z,2025.00
2023-05-10T04:05:18.067Z,2034.00
2023-05-10T04:06:18.116Z,2007.00
2023-05-10T04:07:18.080Z,1999.00
2023-05-10T04:08:18.071Z,2004.00
2023-05-10T04:09:18.123Z,1958.00
2023-05-10T04:10:18.317Z,1979.00
2023-05-10T04:11:18.067Z,1986.00
2023-05-10T04:12:18.063Z,1977.00
2023-05-10T04:13:18.082Z,1994.00
2023-05-10T04:14:18.086Z,1966.00
2023-05-10T04:15:18.059Z,1960.00
2023-05-10T04:16:18.126Z,1956.00
2023-05-10T04:17:18.070Z,2002.00
2023-05-10T04:18:18.067Z,2004.00
2023-05-10T04:19:18.058Z,2012.00
2023-05-10T04:20:18.202Z,1974.00
2023-05-10T04:21:18.069Z,1975.00
2023-05-10T04:22:18.059Z,1977.00
2023-05-10T04:23:18.062Z,1991.00
2023-05-10T04:24:18.088Z,2003.00
2023-05-10T04:25:18.068Z,1985.00
2023-05-10T04:26:18.080Z,1981.00
2023-05-10T04:27:18.083Z,1959.00
2023-05-10T04:28:18.068Z,1965.00
2023-05-10T04:29:18.093Z,1921.00
2023-05-10T04:30:18.203Z,1946.00
2023-05-10T04:31:18.106Z,1946.00
2023-05-10T04:32:18.081Z,1961.00
2023-05-10T04:33:18.086Z,1942.00
2023-05-10T04:34:18.087Z,1970.00
2023-05-10T04:35:18.059Z,1936.00
2023-05-10T04:36:18.084Z,1935.00
2023-05-10T04:37:18.078Z,1943.00
2023-05-10T04:38:18.060Z,1917.00
2023-05-10T04:39:18.091Z,1937.00
2023-05-10T04:40:18.331Z,1964.00
2023-05-10T04:41:18.058Z,1968.00
2023-05-10T04:42:18.074Z,1971.00
2023-05-10T04:43:18.076Z,1962.00
2023-05-10T04:44:18.079Z,1994.00
2023-05-10T04:45:18.074Z,2000.00
2023-05-10T04:46:18.140Z,1992.00
2023-05-10T04:47:18.119Z,1986.00
2023-05-10T04:48:18.084Z,1984.00
2023-05-10T04:49:18.104Z,2001.00
2023-05-10T04:50:18.279Z,1992.00
2023-05-10T04:51:18.121Z,2000.00
2023-05-10T04:52:18.116Z,2006.00
2023-05-10T04:53:18.129Z,2023.00
2023-05-10T04:54:18.117Z,2008.00
2023-05-10T04:55:18.135Z,1995.00
2023-05-10T04:56:18.120Z,1980.00
2023-05-10T04:57:18.144Z,2029.00
2023-05-10T04:58:18.134Z,2141.00
2023-05-10T04:59:18.159Z,2221.00
2023-05-10T05:00:18.306Z,2123.00
2023-05-10T05:01:18.215Z,2116.00
2023-05-10T05:02:18.168Z,2224.00
2023-05-10T05:03:18.265Z,2255.00
2023-05-10T05:04:18.188Z,2324.00
2023-05-10T05:05:18.184Z,2373.00
2023-05-10T05:06:18.187Z,2408.00
2023-05-10T05:07:18.224Z,2362.00
2023-05-10T05:08:18.189Z,2411.00
2023-05-10T05:09:18.207Z,2360.00
2023-05-10T05:10:18.471Z,2347.00
2023-05-10T05:11:18.229Z,2297.00
2023-05-10T05:12:18.199Z,2286.00
2023-05-10T05:13:18.239Z,2269.00
2023-05-10T05:14:18.199Z,2258.00
2023-05-10T05:15:18.195Z,2273.00
2023-05-10T05:16:18.239Z,2228.00
2023-05-10T05:17:18.180Z,2190.00
2023-05-10T05:18:18.170Z,2209.00
2023-05-10T05:19:18.183Z,2204.00
2023-05-10T05:20:18.345Z,2202.00
2023-05-10T05:21:18.227Z,2197.00
2023-05-10T05:22:19.589Z,2201.00
2023-05-10T05:23:18.256Z,2209.00
2023-05-10T05:24:18.273Z,2226.00
2023-05-10T05:25:18.279Z,2233.00
2023-05-10T05:26:18.292Z,2205.00
2023-05-10T05:27:18.277Z,2236.00
2023-05-10T05:28:18.306Z,2517.00
2023-05-10T05:29:18.646Z,2771.00
2023-05-10T05:30:18.495Z,2779.00
2023-05-10T05:31:18.285Z,2837.00
2023-05-10T05:32:18.262Z,2872.00
2023-05-10T05:33:18.270Z,2840.00
2023-05-10T05:34:18.625Z,2860.00
2023-05-10T05:35:18.445Z,2872.00
2023-05-10T05:36:18.231Z,2892.00
2023-05-10T05:37:18.246Z,2873.00
2023-05-10T05:38:18.263Z,2917.00
2023-05-10T05:39:18.318Z,2921.00
2023-05-10T05:40:18.289Z,2860.00
2023-05-10T05:41:18.320Z,2906.00
2023-05-10T05:42:18.394Z,2942.00
2023-05-10T05:43:18.442Z,2862.00
2023-05-10T05:44:18.502Z,2795.00
2023-05-10T05:45:18.925Z,2702.00
2023-05-10T05:46:18.667Z,2687.00
2023-05-10T05:47:18.648Z,2656.00
2023-05-10T05:48:18.672Z,2649.00
2023-05-10T05:49:19.137Z,2631.00
2023-05-10T05:50:18.688Z,2529.00
2023-05-10T05:51:18.680Z,2477.00
2023-05-10T05:52:18.695Z,2335.00
2023-05-10T05:53:18.703Z,2328.00
2023-05-10T05:54:19.116Z,2320.00
2023-05-10T05:55:18.956Z,2316.00
2023-05-10T05:56:18.866Z,2342.00
2023-05-10T05:57:18.888Z,2306.00
2023-05-10T05:58:18.946Z,2362.00
2023-05-10T05:59:19.005Z,2406.00
2023-05-10T06:00:19.012Z,2524.00
2023-05-10T06:01:19.041Z,2543.00
2023-05-10T06:02:19.095Z,2618.00
2023-05-10T06:03:19.199Z,2642.00
2023-05-10T06:04:19.153Z,2694.00
2023-05-10T06:05:19.180Z,2735.00
2023-05-10T06:06:19.092Z,2780.00
2023-05-10T06:07:19.104Z,2831.00
2023-05-10T06:08:19.146Z,2895.00
2023-05-10T06:09:19.202Z,2933.00
2023-05-10T06:10:19.286Z,2904.00
2023-05-10T06:11:19.334Z,3007.00
2023-05-10T06:12:19.361Z,3076.00
2023-05-10T06:13:19.501Z,3069.00
2023-05-10T06:14:19.456Z,3096.00
2023-05-10T06:15:19.626Z,3074.00
2023-05-10T06:16:19.545Z,3276.00
2023-05-10T06:17:19.547Z,3442.00
2023-05-10T06:18:19.591Z,3224.00
2023-05-10T06:19:19.662Z,3169.00
2023-05-10T06:20:20.137Z,3237.00
2023-05-10T06:21:19.679Z,3234.00
2023-05-10T06:22:19.698Z,3220.00
2023-05-10T06:23:19.702Z,3216.00
2023-05-10T06:24:19.721Z,3163.00
2023-05-10T06:25:19.824Z,3143.00
2023-05-10T06:26:19.739Z,3223.00
2023-05-10T06:27:19.756Z,2992.00
2023-05-10T06:28:19.778Z,2857.00
2023-05-10T06:29:19.809Z,2684.00
2023-05-10T06:30:20.147Z,2577.00
2023-05-10T06:31:19.927Z,2553.00
2023-05-10T06:32:19.940Z,2596.00
2023-05-10T06:33:19.970Z,2727.00
2023-05-10T06:34:20.161Z,2818.00
2023-05-10T06:35:20.173Z,2874.00
2023-05-10T06:36:20.133Z,2897.00
2023-05-10T06:37:20.159Z,2968.00
2023-05-10T06:38:20.193Z,3010.00
2023-05-10T06:39:20.258Z,3055.00
2023-05-10T06:40:20.295Z,3108.00
2023-05-10T06:41:21.582Z,3128.00
2023-05-10T06:42:20.297Z,3110.00
2023-05-10T06:43:20.301Z,3013.00
2023-05-10T06:44:20.341Z,2961.00
2023-05-10T06:45:20.618Z,3010.00
2023-05-10T06:46:20.408Z,3084.00
2023-05-10T06:47:20.385Z,3288.00
2023-05-10T06:48:20.473Z,3308.00
2023-05-10T06:49:20.440Z,3326.00
2023-05-10T06:50:20.435Z,3334.00
2023-05-10T06:51:20.434Z,3276.00
2023-05-10T06:52:20.473Z,3295.00
2023-05-10T06:53:20.444Z,3294.00
2023-05-10T06:54:20.453Z,3274.00
2023-05-10T06:55:20.433Z,3211.00
2023-05-10T06:56:20.444Z,3240.00
2023-05-10T06:57:31.443Z,3262.00
2023-05-10T06:58:21.421Z,3262.00
2023-05-10T06:59:20.526Z,3263.00
2023-05-10T07:00:20.893Z,3260.00
2023-05-10T07:01:20.553Z,3270.00
2023-05-10T07:02:20.486Z,3267.00
2023-05-10T07:03:20.506Z,3284.00
2023-05-10T07:04:20.430Z,3298.00
2023-05-10T07:05:20.787Z,3328.00
2023-05-10T07:06:32.211Z,3322.00
2023-05-10T07:07:21.378Z,3324.00
2023-05-10T07:08:20.356Z,3327.00
2023-05-10T07:09:20.356Z,3343.00
2023-05-10T07:10:20.388Z,3362.00
2023-05-10T07:11:20.352Z,3380.00
2023-05-10T07:12:20.379Z,3398.00
2023-05-10T07:13:20.458Z,3395.00
2023-05-10T07:14:20.325Z,3406.00
2023-05-10T07:15:20.334Z,3393.00
2023-05-10T07:16:20.414Z,3397.00
2023-05-10T07:17:20.536Z,3348.00
2023-05-10T07:18:20.518Z,3435.00
2023-05-10T07:19:20.571Z,3433.00
2023-05-10T07:20:20.628Z,3349.00
2023-05-10T07:21:20.760Z,3253.00
2023-05-10T07:22:20.763Z,3240.00
2023-05-10T07:23:20.819Z,3175.00
2023-05-10T07:24:20.902Z,3203.00
2023-05-10T07:25:20.929Z,3189.00
2023-05-10T07:26:20.990Z,3229.00
2023-05-10T07:27:21.164Z,3130.00
2023-05-10T07:28:21.112Z,2757.00
2023-05-10T07:29:21.157Z,2385.00
2023-05-10T07:30:21.140Z,2206.00
2023-05-10T07:31:21.151Z,2259.00
2023-05-10T07:32:21.183Z,2278.00
2023-05-10T07:33:21.240Z,2330.00
2023-05-10T07:34:21.251Z,2383.00
2023-05-10T07:35:21.298Z,2460.00
2023-05-10T07:36:21.341Z,2628.00
2023-05-10T07:37:21.359Z,2724.00
2023-05-10T07:38:21.409Z,2614.00
2023-05-10T07:39:27.072Z,2712.00
2023-05-10T07:40:22.446Z,2716.00
2023-05-10T07:41:21.421Z,2727.00
2023-05-10T07:42:21.412Z,2754.00
2023-05-10T07:43:21.407Z,2804.00
2023-05-10T07:44:21.447Z,2855.00
2023-05-10T07:45:21.395Z,2811.00
2023-05-10T07:46:21.479Z,2806.00
2023-05-10T07:47:21.390Z,2838.00
2023-05-10T07:48:21.361Z,2855.00
2023-05-10T07:49:21.682Z,2889.00
2023-05-10T07:50:21.682Z,2887.00
2023-05-10T07:51:21.354Z,2893.00
2023-05-10T07:52:22.628Z,2939.00
2023-05-10T07:53:21.336Z,2923.00
2023-05-10T07:54:21.327Z,2963.00
2023-05-10T07:55:21.672Z,2938.00
2023-05-10T07:56:21.338Z,2973.00
2023-05-10T07:57:21.355Z,2904.00
2023-05-10T07:58:21.392Z,2929.00
2023-05-10T07:59:21.462Z,2975.00
2023-05-10T08:00:21.702Z,3000.00
2023-05-10T08:01:21.582Z,2985.00
2023-05-10T08:02:21.658Z,3011.00
2023-05-10T08:03:21.742Z,3018.00
2023-05-10T08:04:21.751Z,3063.00
2023-05-10T08:05:21.763Z,3088.00
2023-05-10T08:06:21.836Z,3236.00
2023-05-10T08:07:21.857Z,3388.00
2023-05-10T08:08:21.921Z,3521.00
2023-05-10T08:09:21.944Z,3721.00
2023-05-10T08:10:22.047Z,3605.00
2023-05-10T08:11:22.027Z,3453.00
2023-05-10T08:12:22.051Z,3316.00
2023-05-10T08:13:22.095Z,3308.00
2023-05-10T08:14:22.130Z,3375.00
2023-05-10T08:15:22.708Z,3350.00
2023-05-10T08:16:22.253Z,3343.00
2023-05-10T08:17:24.631Z,3695.00
2023-05-10T08:18:22.516Z,3659.00
2023-05-10T08:19:22.389Z,3542.00
2023-05-10T08:20:22.674Z,3396.00
2023-05-10T08:21:22.466Z,2909.00
2023-05-10T08:22:22.536Z,2606.00
2023-05-10T08:23:22.548Z,2374.00
2023-05-10T08:24:22.573Z,2225.00
2023-05-10T08:25:22.577Z,2113.00
2023-05-10T08:26:22.747Z,2133.00
2023-05-10T08:27:22.650Z,2046.00
2023-05-10T08:28:22.682Z,2007.00
2023-05-10T08:29:22.719Z,2072.00
2023-05-10T08:30:22.807Z,2200.00
2023-05-10T08:31:22.874Z,2125.00
2023-05-10T08:32:22.905Z,2133.00
2023-05-10T08:33:22.963Z,2158.00
2023-05-10T08:34:23.288Z,2151.00
2023-05-10T08:35:23.020Z,2146.00
2023-05-10T08:36:23.094Z,2125.00
2023-05-10T08:37:23.120Z,2183.00
2023-05-10T08:38:23.182Z,2238.00
2023-05-10T08:39:30.231Z,2395.00
2023-05-10T08:40:24.268Z,2400.00
2023-05-10T08:41:23.220Z,2426.00
2023-05-10T08:42:23.228Z,2444.00
2023-05-10T08:43:23.221Z,2487.00
2023-05-10T08:44:23.205Z,2578.00
2023-05-10T08:45:23.700Z,2644.00
2023-05-10T08:46:23.233Z,2715.00
2023-05-10T08:47:23.243Z,2762.00
2023-05-10T08:48:23.188Z,2763.00
2023-05-10T08:49:23.249Z,2793.00
2023-05-10T08:50:23.192Z,2802.00
2023-05-10T08:51:23.183Z,2824.00
2023-05-10T08:52:23.168Z,2847.00
2023-05-10T08:53:23.183Z,2822.00
2023-05-10T08:54:23.207Z,2855.00
2023-05-10T08:55:23.224Z,2847.00
2023-05-10T08:56:23.240Z,2852.00
2023-05-10T08:57:23.264Z,2850.00
2023-05-10T08:58:23.275Z,2853.00
2023-05-10T08:59:23.268Z,2848.00
2023-05-10T09:00:23.290Z,2856.00
2023-05-10T09:01:23.429Z,2854.00
2023-05-10T09:02:23.308Z,2858.00
2023-05-10T09:03:23.332Z,2848.00
2023-05-10T09:04:23.398Z,2833.00
2023-05-10T09:05:23.383Z,2840.00
2023-05-10T09:06:23.343Z,2805.00
2023-05-10T09:07:23.338Z,2819.00
2023-05-10T09:08:23.358Z,2800.00
2023-05-10T09:09:23.362Z,2783.00
2023-05-10T09:10:23.703Z,2783.00
2023-05-10T09:11:23.377Z,2773.00
2023-05-10T09:12:23.375Z,2766.00
2023-05-10T09:13:23.384Z,2771.00
2023-05-10T09:14:23.407Z,2760.00
2023-05-10T09:15:23.716Z,2763.00
2023-05-10T09:16:23.437Z,2755.00
2023-05-10T09:17:23.668Z,2743.00
2023-05-10T09:18:23.802Z,2739.00
2023-05-10T09:19:23.447Z,2748.00
2023-05-10T09:20:23.709Z,2741.00
2023-05-10T09:21:23.532Z,2719.00
2023-05-10T09:22:23.424Z,2721.00
2023-05-10T09:23:23.444Z,2713.00
2023-05-10T09:24:23.446Z,2706.00
2023-05-10T09:25:23.737Z,2688.00
2023-05-10T09:26:23.425Z,2686.00
2023-05-10T09:27:23.452Z,2677.00
2023-05-10T09:28:23.441Z,2678.00
2023-05-10T09:29:23.438Z,2664.00
2023-05-10T09:30:23.751Z,2674.00
2023-05-10T09:31:23.697Z,2474.00
2023-05-10T09:32:23.472Z,2280.00
2023-05-10T09:33:23.441Z,1650.00
2023-05-10T09:34:23.496Z,1310.00
2023-05-10T09:35:23.555Z,1166.00
2023-05-10T09:36:23.720Z,1024.00
2023-05-10T09:37:23.556Z,980.00
2023-05-10T09:38:23.603Z,960.00
2023-05-10T09:39:23.595Z,914.00
2023-05-10T09:40:23.628Z,941.00
2023-05-10T09:41:23.677Z,1011.00
2023-05-10T09:42:23.717Z,978.00
2023-05-10T09:43:23.766Z,982.00
2023-05-10T09:44:23.826Z,1129.00
2023-05-10T09:45:24.229Z,1274.00
2023-05-10T09:46:24.038Z,1339.00
2023-05-10T09:47:24.070Z,1424.00
2023-05-10T09:48:24.038Z,1498.00
2023-05-10T09:49:24.063Z,1567.00
2023-05-10T09:50:24.232Z,1614.00
2023-05-10T09:51:24.072Z,1582.00
2023-05-10T09:52:24.092Z,1720.00
2023-05-10T09:53:24.114Z,1849.00
2023-05-10T09:54:24.189Z,1864.00
2023-05-10T09:55:24.238Z,1936.00
2023-05-10T09:56:24.279Z,1942.00
2023-05-10T09:57:24.317Z,2012.00
2023-05-10T09:58:24.334Z,2023.00
2023-05-10T09:59:24.351Z,1961.00
2023-05-10T10:00:24.400Z,2038.00
2023-05-10T10:01:24.418Z,2103.00
2023-05-10T10:02:24.452Z,2190.00
2023-05-10T10:03:24.404Z,2213.00
2023-05-10T10:04:24.417Z,2195.00
2023-05-10T10:05:24.415Z,2209.00
2023-05-10T10:06:30.116Z,2242.00
2023-05-10T10:07:25.408Z,2243.00
2023-05-10T10:08:24.381Z,2244.00
2023-05-10T10:09:24.389Z,2250.00
2023-05-10T10:10:24.371Z,2271.00
2023-05-10T10:11:24.370Z,2339.00
2023-05-10T10:12:24.375Z,2384.00
2023-05-10T10:13:24.345Z,2420.00
2023-05-10T10:14:24.352Z,2430.00
2023-05-10T10:15:24.407Z,2452.00
2023-05-10T10:16:24.789Z,2458.00
2023-05-10T10:17:24.556Z,2460.00
2023-05-10T10:18:24.598Z,2454.00
2023-05-10T10:19:24.640Z,2279.00
2023-05-10T10:20:24.698Z,2110.00
2023-05-10T10:21:24.775Z,2027.00
2023-05-10T10:22:24.796Z,2078.00
2023-05-10T10:23:24.831Z,2141.00
2023-05-10T10:24:24.853Z,2183.00
2023-05-10T10:25:24.872Z,2201.00
2023-05-10T10:26:25.266Z,2256.00
2023-05-10T10:27:24.972Z,2349.00
2023-05-10T10:28:26.065Z,2440.00
2023-05-10T10:29:25.102Z,2550.00
2023-05-10T10:30:25.150Z,2658.00
2023-05-10T10:31:25.218Z,2703.00
2023-05-10T10:32:25.284Z,2666.00
2023-05-10T10:33:28.919Z,2739.00
2023-05-10T10:34:25.282Z,2663.00
2023-05-10T10:35:25.293Z,2729.00
2023-05-10T10:36:25.733Z,2754.00
2023-05-10T10:37:25.277Z,2774.00
2023-05-10T10:38:25.269Z,2926.00
2023-05-10T10:39:25.269Z,3151.00
2023-05-10T10:40:25.246Z,3351.00
2023-05-10T10:41:25.241Z,3581.00
2023-05-10T10:42:25.242Z,3724.00
2023-05-10T10:43:25.317Z,3946.00
2023-05-10T10:44:25.242Z,3842.00
2023-05-10T10:45:25.213Z,3318.00
2023-05-10T10:46:25.237Z,3340.00
2023-05-10T10:47:25.256Z,3334.00
2023-05-10T10:48:25.214Z,3315.00
2023-05-10T10:49:25.206Z,3266.00
2023-05-10T10:50:25.202Z,3274.00
2023-05-10T10:51:25.198Z,3254.00
2023-05-10T10:52:25.184Z,3168.00
2023-05-10T10:53:25.199Z,3158.00
2023-05-10T10:54:25.174Z,3125.00
2023-05-10T10:55:25.157Z,3097.00
2023-05-10T10:56:25.218Z,3104.00
2023-05-10T10:57:25.144Z,3050.00
2023-05-10T10:58:25.148Z,3040.00
2023-05-10T10:59:25.124Z,3035.00
2023-05-10T11:00:25.182Z,3067.00
2023-05-10T11:01:25.170Z,2966.00
2023-05-10T11:02:25.155Z,2631.00
2023-05-10T11:03:25.114Z,2755.00
2023-05-10T11:04:25.128Z,2742.00
2023-05-10T11:05:25.084Z,2802.00
2023-05-10T11:06:25.083Z,2828.00
2023-05-10T11:07:25.088Z,2812.00
2023-05-10T11:08:25.073Z,2666.00
2023-05-10T11:09:25.064Z,2668.00
2023-05-10T11:10:25.092Z,2707.00
2023-05-10T11:11:25.069Z,2435.00
2023-05-10T11:12:25.092Z,2291.00
2023-05-10T11:13:25.036Z,2412.00
2023-05-10T11:14:25.039Z,2555.00
2023-05-10T11:15:25.048Z,2340.00
2023-05-10T11:16:25.219Z,2052.00
2023-05-10T11:17:25.130Z,2328.00
2023-05-10T11:18:25.054Z,2237.00
2023-05-10T11:19:25.081Z,2101.00
2023-05-10T11:20:25.132Z,1813.00
2023-05-10T11:21:25.199Z,1905.00
2023-05-10T11:22:25.260Z,1778.00
2023-05-10T11:23:25.297Z,1876.00
2023-05-10T11:24:25.337Z,2025.00
2023-05-10T11:25:25.350Z,1953.00
2023-05-10T11:26:25.379Z,1892.00
2023-05-10T11:27:25.390Z,1780.00
2023-05-10T11:28:25.401Z,1744.00
2023-05-10T11:29:25.413Z,1666.00
2023-05-10T11:30:25.381Z,1569.00
2023-05-10T11:31:25.427Z,1482.00
2023-05-10T11:32:25.421Z,1474.00
2023-05-10T11:33:25.416Z,1492.00
2023-05-10T11:34:25.395Z,1491.00
2023-05-10T11:35:25.386Z,1571.00
2023-05-10T11:36:25.385Z,1604.00
2023-05-10T11:37:25.383Z,1669.00
2023-05-10T11:38:25.403Z,1747.00
2023-05-10T11:39:25.415Z,1797.00
2023-05-10T11:40:25.399Z,1845.00
2023-05-10T11:41:25.438Z,1880.00
2023-05-10T11:42:25.396Z,1907.00
2023-05-10T11:43:25.432Z,1964.00
2023-05-10T11:44:25.412Z,2004.00
2023-05-10T11:45:25.441Z,2024.00
2023-05-10T11:46:25.486Z,2030.00
2023-05-10T11:47:25.449Z,2045.00
2023-05-10T11:48:25.455Z,2059.00
2023-05-10T11:49:25.439Z,2074.00
2023-05-10T11:50:25.441Z,2116.00
2023-05-10T11:51:25.470Z,2104.00
2023-05-10T11:52:25.452Z,2130.00
2023-05-10T11:53:25.925Z,2133.00
2023-05-10T11:54:25.467Z,2135.00
2023-05-10T11:55:25.473Z,2145.00
2023-05-10T11:56:25.478Z,2143.00
2023-05-10T11:57:25.482Z,2154.00
2023-05-10T11:58:25.486Z,2167.00
2023-05-10T11:59:25.467Z,2150.00
2023-05-10T12:00:25.478Z,2181.00
2023-05-10T12:01:25.488Z,2156.00
2023-05-10T12:02:25.565Z,2156.00
2023-05-10T12:03:25.547Z,2130.00
2023-05-10T12:04:25.488Z,2140.00
2023-05-10T12:05:25.463Z,2027.00